Monday, December 18, 2017, 11:37 AM EST
Back to Local

KCQX, Chatham Municipal Airport

Location: Chatham, MA, United States Lat: 41.683
Local Time: 11:37 AM EST (16:37 GMT) Lon: -70
Time Zone: US/Eastern Elev: 68 ft

Show me the last for .
Show Decoded

2017-12-18 10:52 METAR KCQX 181552Z AUTO 00000KT 10SM FEW030 OVC060 02/M04 A3012 RMK AO2 SLP202
                 T00221044 =
2017-12-18 10:12 METAR KCQX 181512Z AUTO 00000KT 10SM SCT028 OVC060 01/M06 A3016 RMK AO2
                 T00111056 =
2017-12-18 09:52 METAR KCQX 181452Z AUTO 00000KT 10SM OVC028 01/M06 A3017 RMK AO2 SLP219
                 T00061061 57009 =
2017-12-18 09:25 METAR KCQX 181425Z AUTO 00000KT 10SM BKN028 OVC055 00/M06 A3018 RMK AO2
                 T00001061 =
2017-12-18 08:52 METAR KCQX 181352Z AUTO 00000KT 10SM BKN030 OVC049 M01/M06 A3018 RMK AO2 SLP223
                 T10061056 =
2017-12-18 08:28 METAR KCQX 181328Z AUTO 00000KT 10SM BKN027 BKN031 OVC050 M01/M06 A3020 RMK AO2
                 T10111056 =
2017-12-18 07:52 METAR KCQX 181252Z AUTO 00000KT 10SM OVC050 M02/M06 A3020 RMK AO2 SLP228
                 T10221056 =
2017-12-18 06:52 METAR KCQX 181152Z AUTO 00000KT 10SM FEW055 OVC100 M03/M07 A3020 RMK AO2 SLP227
                 T10281072 11022 21044 56009 =
2017-12-18 05:52 METAR KCQX 181052Z AUTO 00000KT 10SM BKN070 OVC100 M03/M07 A3020 RMK AO2 SLP229
                 T10281067 =
2017-12-18 04:52 METAR KCQX 180952Z AUTO 00000KT 10SM BKN070 OVC090 M03/M08 A3020 RMK AO2 SLP229
                 T10281078 =
2017-12-18 03:52 METAR KCQX 180852Z AUTO 00000KT 10SM OVC085 M03/M07 A3022 RMK AO2 SLP236
                 T10331072 58005 =
2017-12-18 02:52 METAR KCQX 180752Z AUTO 00000KT 10SM BKN085 M04/M08 A3023 RMK AO2 SLP239
                 T10391083 =
2017-12-18 01:52 METAR KCQX 180652Z AUTO 00000KT 10SM CLR M04/M10 A3024 RMK AO2 SLP242 T10391100
                 =
2017-12-18 00:52 METAR KCQX 180552Z AUTO 00000KT 10SM CLR M04/M10 A3024 RMK AO2 SLP242 T10441100
                 11039 21061 56009 =
2017-12-17 23:52 METAR KCQX 180452Z AUTO 00000KT 10SM CLR M06/M11 A3025 RMK AO2 SLP244 T10611106
                 410061072 =
2017-12-17 22:52 METAR KCQX 180352Z AUTO 00000KT 10SM CLR M05/M11 A3025 RMK AO2 SLP246 T10501111
                 =
2017-12-17 21:52 METAR KCQX 180252Z AUTO 00000KT 10SM CLR M04/M11 A3027 RMK AO2 SLP251 T10441111
                 58001 =
2017-12-17 20:52 METAR KCQX 180152Z AUTO 27003KT 10SM CLR M04/M13 A3029 RMK AO2 SLP258 T10441128
                 =
2017-12-17 19:52 METAR KCQX 180052Z AUTO 00000KT 10SM CLR M04/M13 A3028 RMK AO2 SLP257 T10391133
                 =
2017-12-17 18:52 METAR KCQX 172352Z AUTO 28003KT 10SM CLR M05/M13 A3027 RMK AO2 SLP252 T10501133
                 11006 21050 53008 =
2017-12-17 17:52 METAR KCQX 172252Z AUTO 00000KT 10SM CLR M05/M12 A3026 RMK AO2 SLP248 T10501122
                 =
2017-12-17 16:52 METAR KCQX 172152Z AUTO 00000KT 10SM CLR M04/M12 A3025 RMK AO2 SLP244 T10391117
                 =
2017-12-17 15:52 METAR KCQX 172052Z AUTO 00000KT 10SM CLR M02/M12 A3025 RMK AO2 SLP244 T10221122
                 53005 =
2017-12-17 14:52 METAR KCQX 171952Z AUTO 30004KT 10SM CLR M02/M12 A3022 RMK AO2 SLP234 T10171122
                 =
2017-12-17 13:52 METAR KCQX 171852Z AUTO 31007KT 10SM CLR M02/M12 A3023 RMK AO2 SLP238 T10171117
                 =
2017-12-17 12:52 METAR KCQX 171752Z AUTO VRB06KT 10SM CLR M01/M11 A3023 RMK AO2 SLP239 T10061106
                 11006 21072 56010 =
2017-12-17 11:52 METAR KCQX 171652Z AUTO 33007G17KT 290V010 10SM CLR M01/M10 A3024 RMK AO2 SLP241
                 T10111100 =

Support USWX by starting your Amazon purchase here.